createdAt,value
2023-02-04T00:00:58.105Z,7.19
2023-02-04T00:05:59.816Z,7.07
2023-02-04T00:11:01.718Z,7.05
2023-02-04T00:16:03.610Z,7.05
2023-02-04T00:21:05.632Z,7.02
2023-02-04T00:26:07.295Z,7.00
2023-02-04T00:31:09.094Z,7.02
2023-02-04T00:36:10.807Z,7.01
2023-02-04T00:41:12.441Z,7.00
2023-02-04T00:46:14.171Z,7.06
2023-02-04T00:51:15.864Z,7.01
2023-02-04T00:56:17.562Z,7.01
2023-02-04T01:01:19.570Z,6.93
2023-02-04T01:06:22.485Z,6.88
2023-02-04T01:11:24.362Z,6.87
2023-02-04T01:16:26.840Z,6.90
2023-02-04T01:21:29.829Z,6.84
2023-02-04T01:26:31.736Z,6.83
2023-02-04T01:31:34.091Z,6.80
2023-02-04T01:36:37.452Z,6.80
2023-02-04T01:41:39.922Z,6.83
2023-02-04T01:46:41.947Z,6.81
2023-02-04T01:51:43.787Z,6.82
2023-02-04T01:56:47.780Z,6.82
2023-02-04T02:01:54.093Z,6.82
2023-02-04T02:06:59.006Z,6.79
2023-02-04T02:12:02.963Z,6.65
2023-02-04T02:17:04.762Z,6.69
2023-02-04T02:22:25.992Z,6.69
2023-02-04T02:27:27.696Z,6.65
2023-02-04T02:32:32.939Z,6.55
2023-02-04T02:37:34.872Z,6.42
2023-02-04T02:42:37.579Z,6.36
2023-02-04T02:47:39.400Z,6.27
2023-02-04T02:52:41.149Z,6.27
2023-02-04T02:57:44.109Z,6.26
2023-02-04T03:02:53.588Z,6.32
2023-02-04T03:07:55.427Z,6.36
2023-02-04T03:12:58.824Z,6.37
2023-02-04T03:18:01.119Z,6.38
2023-02-04T03:23:02.919Z,6.37
2023-02-04T03:28:05.634Z,6.35
2023-02-04T03:33:07.404Z,6.33
2023-02-04T03:38:09.114Z,6.31
2023-02-04T03:43:10.864Z,6.29
2023-02-04T03:48:12.630Z,6.29
2023-02-04T03:53:14.893Z,6.30
2023-02-04T03:58:16.668Z,6.29
2023-02-04T04:03:18.380Z,6.23
2023-02-04T04:08:20.055Z,6.15
2023-02-04T04:13:21.957Z,6.18
2023-02-04T04:18:23.667Z,6.18
2023-02-04T04:23:25.710Z,6.16
2023-02-04T04:28:27.373Z,6.16
2023-02-04T04:33:29.199Z,6.15
2023-02-04T04:38:31.003Z,6.06
2023-02-04T04:43:32.645Z,6.01
2023-02-04T04:48:34.433Z,5.96
2023-02-04T04:53:36.130Z,5.94
2023-02-04T04:58:37.743Z,5.91
2023-02-04T05:03:39.692Z,5.91
2023-02-04T05:08:41.711Z,5.88
2023-02-04T05:13:43.437Z,5.89
2023-02-04T05:18:45.208Z,5.84
2023-02-04T05:23:46.847Z,5.87
2023-02-04T05:28:48.617Z,5.79
2023-02-04T05:33:50.249Z,5.77
2023-02-04T05:38:51.907Z,5.77
2023-02-04T05:43:53.848Z,5.73
2023-02-04T05:48:55.587Z,5.73
2023-02-04T05:53:57.249Z,5.73
2023-02-04T05:58:58.945Z,5.72
2023-02-04T06:04:00.662Z,5.77
2023-02-04T06:09:02.539Z,5.79
2023-02-04T06:14:04.214Z,5.77
2023-02-04T06:19:05.923Z,5.80
2023-02-04T06:24:08.093Z,5.74
2023-02-04T06:29:10.060Z,5.73
2023-02-04T06:34:11.838Z,5.78
2023-02-04T06:39:13.501Z,5.71
2023-02-04T06:44:15.268Z,5.71
2023-02-04T06:49:17.071Z,5.72
2023-02-04T06:54:18.863Z,5.74
2023-02-04T06:59:20.596Z,5.62
2023-02-04T07:04:22.281Z,5.50
2023-02-04T07:09:24.071Z,5.42
2023-02-04T07:14:25.891Z,5.46
2023-02-04T07:19:27.680Z,5.39
2023-02-04T07:24:29.526Z,5.35
2023-02-04T07:29:31.187Z,5.34
2023-02-04T07:34:32.868Z,5.33
2023-02-04T07:39:34.503Z,5.39
2023-02-04T07:44:37.702Z,5.38
2023-02-04T07:49:39.379Z,5.42
2023-02-04T07:54:41.223Z,5.50
2023-02-04T07:59:42.860Z,5.61
2023-02-04T08:04:44.496Z,5.58
2023-02-04T08:09:46.920Z,5.08
2023-02-04T08:14:48.531Z,4.72
2023-02-04T08:19:50.417Z,4.52
2023-02-04T08:24:52.174Z,4.40
2023-02-04T08:29:55.222Z,4.47
2023-02-04T08:34:59.938Z,4.61
2023-02-04T08:40:01.718Z,4.78
2023-02-04T08:45:03.947Z,5.30
2023-02-04T08:50:05.935Z,5.46
2023-02-04T08:55:08.328Z,5.44
2023-02-04T09:00:11.712Z,5.40
2023-02-04T09:05:13.457Z,5.43
2023-02-04T09:10:15.388Z,5.38
2023-02-04T09:15:17.426Z,5.34
2023-02-04T09:20:19.412Z,5.37
2023-02-04T09:25:21.265Z,5.38
2023-02-04T09:30:23.173Z,5.27
2023-02-04T09:35:24.942Z,5.32
2023-02-04T09:40:28.594Z,5.38
2023-02-04T09:45:36.138Z,5.42
2023-02-04T09:50:37.823Z,5.41
2023-02-04T09:55:43.201Z,5.36
2023-02-04T10:00:47.258Z,5.38
2023-02-04T10:05:51.521Z,5.47
2023-02-04T10:10:54.265Z,5.54
2023-02-04T10:15:56.426Z,5.53
2023-02-04T10:21:17.249Z,5.52
2023-02-04T10:26:21.317Z,5.41
2023-02-04T10:31:46.776Z,5.31
2023-02-04T10:36:57.694Z,5.36
2023-02-04T10:42:01.253Z,5.35
2023-02-04T10:47:15.291Z,5.36
2023-02-04T10:52:19.936Z,5.52
2023-02-04T10:57:28.250Z,5.56
2023-02-04T11:02:48.919Z,5.55
2023-02-04T11:07:51.505Z,5.77
2023-02-04T11:12:53.073Z,5.90
2023-02-04T11:18:29.948Z,6.09
2023-02-04T11:23:33.698Z,6.07
2023-02-04T11:28:41.074Z,6.24
2023-02-04T11:33:42.939Z,6.26
2023-02-04T11:38:49.895Z,6.26
2023-02-04T11:43:53.122Z,6.04
2023-02-04T11:48:57.120Z,6.05
2023-02-04T11:53:58.827Z,6.06
2023-02-04T11:59:00.506Z,5.92
2023-02-04T12:04:07.042Z,5.89
2023-02-04T12:09:24.782Z,6.01
2023-02-04T12:14:35.131Z,6.19
2023-02-04T12:19:36.786Z,6.37
2023-02-04T12:24:38.657Z,6.68
2023-02-04T12:29:40.453Z,6.75
2023-02-04T12:34:42.157Z,6.52
2023-02-04T12:39:43.785Z,6.51
2023-02-04T12:44:45.477Z,6.79
2023-02-04T12:49:47.194Z,6.76
2023-02-04T12:54:48.872Z,6.62
2023-02-04T12:59:50.993Z,6.49
2023-02-04T13:04:52.745Z,6.34
2023-02-04T13:09:54.447Z,6.47
2023-02-04T13:14:56.116Z,6.50
2023-02-04T13:19:57.839Z,6.46
2023-02-04T13:24:59.568Z,6.27
2023-02-04T13:30:01.613Z,6.27
2023-02-04T13:35:03.532Z,6.30
2023-02-04T13:40:07.723Z,6.29
2023-02-04T13:45:12.707Z,6.34
2023-02-04T13:50:16.216Z,6.29
2023-02-04T13:55:18.010Z,6.27
2023-02-04T14:00:19.888Z,6.20
2023-02-04T14:05:21.576Z,6.04
2023-02-04T14:10:24.947Z,5.91
2023-02-04T14:15:26.760Z,5.84
2023-02-04T14:20:28.456Z,5.84
2023-02-04T14:25:30.110Z,5.84
2023-02-04T14:30:33.020Z,5.90
2023-02-04T14:35:35.176Z,6.01
2023-02-04T14:40:37.049Z,6.04
2023-02-04T14:45:40.093Z,5.98
2023-02-04T14:50:41.778Z,5.87
2023-02-04T14:55:43.422Z,5.78
2023-02-04T15:00:45.232Z,5.74
2023-02-04T15:05:46.888Z,5.75
2023-02-04T15:10:48.554Z,5.74
2023-02-04T15:15:50.588Z,5.74
2023-02-04T15:20:52.385Z,5.70
2023-02-04T15:25:57.369Z,5.75
2023-02-04T15:30:59.209Z,5.67
2023-02-04T15:36:01.036Z,5.65
2023-02-04T15:41:04.428Z,5.59
2023-02-04T15:46:06.837Z,5.55
2023-02-04T15:51:09.324Z,5.50
2023-02-04T15:56:11.119Z,5.46
2023-02-04T16:01:15.039Z,5.31
2023-02-04T16:06:16.724Z,5.18
2023-02-04T16:11:18.404Z,5.14
2023-02-04T16:16:20.456Z,5.16
2023-02-04T16:21:22.341Z,5.12
2023-02-04T16:26:24.045Z,5.04
2023-02-04T16:31:25.957Z,4.91
2023-02-04T16:36:27.698Z,4.74
2023-02-04T16:41:29.489Z,4.72
2023-02-04T16:46:33.552Z,4.74
2023-02-04T16:51:35.436Z,4.69
2023-02-04T16:56:37.086Z,4.21
2023-02-04T17:01:38.834Z,3.99
2023-02-04T17:06:40.622Z,3.74
2023-02-04T17:11:42.456Z,3.58
2023-02-04T17:16:45.283Z,3.52
2023-02-04T17:21:47.322Z,3.45
2023-02-04T17:26:49.102Z,3.38
2023-02-04T17:31:52.646Z,3.25
2023-02-04T17:36:54.417Z,3.20
2023-02-04T17:41:56.129Z,3.10
2023-02-04T17:46:58.992Z,2.72
2023-02-04T17:52:01.020Z,2.37
2023-02-04T17:57:16.568Z,2.35
2023-02-04T18:02:29.578Z,2.36
2023-02-04T18:07:31.683Z,2.33
2023-02-04T18:12:34.451Z,2.02
2023-02-04T18:17:36.130Z,1.78
2023-02-04T18:22:37.799Z,1.64
2023-02-04T18:27:39.518Z,1.71
2023-02-04T18:32:42.109Z,1.90
2023-02-04T18:37:48.977Z,1.96
2023-02-04T18:43:01.425Z,1.92
2023-02-04T18:48:21.702Z,1.98
2023-02-04T18:53:25.282Z,1.97
2023-02-04T18:58:42.673Z,1.85
2023-02-04T19:04:00.151Z,1.79
2023-02-04T19:09:24.326Z,1.68
2023-02-04T19:14:36.307Z,1.64
2023-02-04T19:19:40.360Z,1.65
2023-02-04T19:24:42.148Z,1.66
2023-02-04T19:29:43.876Z,1.72
2023-02-04T19:34:45.487Z,1.59
2023-02-04T19:39:48.924Z,1.52
2023-02-04T19:44:51.645Z,1.49
2023-02-04T19:49:57.533Z,1.51
2023-02-04T19:55:22.539Z,1.46
2023-02-04T20:00:33.583Z,1.41
2023-02-04T20:05:35.376Z,1.26
2023-02-04T20:10:37.104Z,1.29
2023-02-04T20:15:39.005Z,1.25
2023-02-04T20:20:42.995Z,1.26
2023-02-04T20:25:47.697Z,1.27
2023-02-04T20:30:51.509Z,1.26
2023-02-04T20:35:53.162Z,1.22
2023-02-04T20:40:55.457Z,1.17
2023-02-04T20:46:00.057Z,1.16
2023-02-04T20:51:03.927Z,1.00
2023-02-04T20:56:24.883Z,0.96
2023-02-04T21:01:34.399Z,0.96
2023-02-04T21:06:36.967Z,0.93
2023-02-04T21:11:38.673Z,0.84
2023-02-04T21:16:40.292Z,0.83
2023-02-04T21:21:42.191Z,0.85
2023-02-04T21:26:44.505Z,0.86
2023-02-04T21:31:46.560Z,0.84
2023-02-04T21:36:48.381Z,0.81
2023-02-04T21:42:09.829Z,0.72
2023-02-04T21:47:11.589Z,0.71
2023-02-04T21:52:14.939Z,0.75
2023-02-04T21:57:16.643Z,0.70
2023-02-04T22:02:18.292Z,0.69
2023-02-04T22:07:20.186Z,0.66
2023-02-04T22:12:21.875Z,0.62
2023-02-04T22:17:23.608Z,0.59
2023-02-04T22:22:25.478Z,0.56
2023-02-04T22:27:27.262Z,0.61
2023-02-04T22:32:30.184Z,0.57
2023-02-04T22:37:31.958Z,0.59
2023-02-04T22:42:33.720Z,0.54
2023-02-04T22:47:35.412Z,0.44
2023-02-04T22:52:37.131Z,0.38
2023-02-04T22:57:38.761Z,0.33
2023-02-04T23:02:40.516Z,0.33
2023-02-04T23:07:42.192Z,0.30
2023-02-04T23:12:44.538Z,0.19
2023-02-04T23:17:46.355Z,0.07
2023-02-04T23:22:48.094Z,0.03
2023-02-04T23:27:49.867Z,0.03
2023-02-04T23:32:51.893Z,0.02
2023-02-04T23:37:53.723Z,0.03
2023-02-04T23:42:55.372Z,0.03
2023-02-04T23:47:56.983Z,0.00
2023-02-04T23:52:58.830Z,0.00
2023-02-04T23:58:00.668Z,-0.10
